createdAt,value
2022-10-17T00:00:31.019Z,89.49
2022-10-17T00:02:58.079Z,89.28
2022-10-17T00:05:25.185Z,88.64
2022-10-17T00:07:52.894Z,87.73
2022-10-17T00:10:20.030Z,88.27
2022-10-17T00:12:46.647Z,89.05
2022-10-17T00:15:18.329Z,89.38
2022-10-17T00:17:45.218Z,88.99
2022-10-17T00:20:12.313Z,89.20
2022-10-17T00:22:39.107Z,88.29
2022-10-17T00:25:06.233Z,89.34
2022-10-17T00:27:37.109Z,90.46
2022-10-17T00:30:04.340Z,90.62
2022-10-17T00:32:31.851Z,90.44
2022-10-17T00:34:58.709Z,90.94
2022-10-17T00:37:25.469Z,91.14
2022-10-17T00:39:52.118Z,91.29
2022-10-17T00:42:18.736Z,90.86
2022-10-17T00:44:47.481Z,88.51
2022-10-17T00:47:18.298Z,87.81
2022-10-17T00:49:45.745Z,88.27
2022-10-17T00:52:17.686Z,90.15
2022-10-17T00:54:49.093Z,88.84
2022-10-17T00:57:17.018Z,89.63
2022-10-17T00:59:48.755Z,89.08
2022-10-17T01:02:18.880Z,88.63
2022-10-17T01:04:50.025Z,87.04
2022-10-17T01:07:16.975Z,87.73
2022-10-17T01:09:46.186Z,88.78
2022-10-17T01:12:21.888Z,88.45
2022-10-17T01:15:23.912Z,87.88
2022-10-17T01:18:19.478Z,88.70
2022-10-17T01:20:59.276Z,87.36
2022-10-17T01:24:03.513Z,86.58
2022-10-17T01:26:58.880Z,85.98
2022-10-17T01:29:40.849Z,87.04
2022-10-17T01:32:20.066Z,87.15
2022-10-17T01:35:11.603Z,87.47
2022-10-17T01:37:55.725Z,87.81
2022-10-17T01:40:36.881Z,88.27
2022-10-17T01:43:12.742Z,87.84
2022-10-17T01:46:03.327Z,88.50
2022-10-17T01:48:37.953Z,89.03
2022-10-17T01:51:22.631Z,89.01
2022-10-17T01:53:54.783Z,87.71
2022-10-17T01:56:25.848Z,87.55
2022-10-17T01:58:58.650Z,88.68
2022-10-17T02:01:28.870Z,88.81
2022-10-17T02:03:58.168Z,88.87
2022-10-17T02:06:24.993Z,88.13
2022-10-17T02:08:51.689Z,89.37
2022-10-17T02:11:24.950Z,89.64
2022-10-17T02:14:07.215Z,87.87
2022-10-17T02:16:39.436Z,88.05
2022-10-17T02:19:26.454Z,87.96
2022-10-17T02:22:10.085Z,87.41
2022-10-17T02:24:43.654Z,87.80
2022-10-17T02:27:47.679Z,87.04
2022-10-17T02:30:34.009Z,88.23
2022-10-17T02:33:07.928Z,87.72
2022-10-17T02:35:40.319Z,88.17
2022-10-17T02:38:09.752Z,88.02
2022-10-17T02:40:38.104Z,87.76
2022-10-17T02:43:05.023Z,87.68
2022-10-17T02:45:35.982Z,87.92
2022-10-17T02:48:29.306Z,87.66
2022-10-17T02:51:05.452Z,88.11
2022-10-17T02:53:47.989Z,89.42
2022-10-17T02:56:18.647Z,89.46
2022-10-17T02:58:50.969Z,89.15
2022-10-17T03:01:18.977Z,89.01
2022-10-17T03:03:46.006Z,88.50
2022-10-17T03:06:12.832Z,89.16
2022-10-17T03:08:39.702Z,88.96
2022-10-17T03:11:06.517Z,89.70
2022-10-17T03:13:36.217Z,89.76
2022-10-17T03:16:06.322Z,89.50
2022-10-17T03:18:33.257Z,90.17
2022-10-17T03:21:01.256Z,91.75
2022-10-17T03:23:28.459Z,90.61
2022-10-17T03:25:55.459Z,90.46
2022-10-17T03:28:22.403Z,90.33
2022-10-17T03:30:50.103Z,90.14
2022-10-17T03:33:16.962Z,91.60
2022-10-17T03:35:43.693Z,92.30
2022-10-17T03:38:10.358Z,90.66
2022-10-17T03:40:37.136Z,89.44
2022-10-17T03:43:04.226Z,89.12
2022-10-17T03:45:30.886Z,89.85
2022-10-17T03:47:59.003Z,89.93
2022-10-17T03:50:26.131Z,91.07
2022-10-17T03:52:53.192Z,91.37
2022-10-17T03:55:19.910Z,92.16
2022-10-17T03:57:47.064Z,92.71
2022-10-17T04:00:18.046Z,91.50
2022-10-17T04:02:52.709Z,92.01
2022-10-17T04:05:19.653Z,93.17
2022-10-17T04:07:47.675Z,93.71
2022-10-17T04:10:16.320Z,93.74
2022-10-17T04:12:43.257Z,93.61
2022-10-17T04:15:10.658Z,93.07
2022-10-17T04:17:38.478Z,92.89
2022-10-17T04:20:07.086Z,93.58
2022-10-17T04:22:34.608Z,94.04
2022-10-17T04:25:04.329Z,94.04
2022-10-17T04:27:36.068Z,94.39
2022-10-17T04:30:03.166Z,94.30
2022-10-17T04:32:33.181Z,94.13
2022-10-17T04:35:08.967Z,94.37
2022-10-17T04:37:36.049Z,94.59
2022-10-17T04:40:09.664Z,95.01
2022-10-17T04:42:36.783Z,94.84
2022-10-17T04:45:04.917Z,93.69
2022-10-17T04:47:32.490Z,93.56
2022-10-17T04:49:59.241Z,92.11
2022-10-17T04:52:26.845Z,91.80
2022-10-17T04:54:54.062Z,93.26
2022-10-17T04:57:21.617Z,92.57
2022-10-17T04:59:56.146Z,91.95
2022-10-17T05:02:30.943Z,91.88
2022-10-17T05:04:58.485Z,92.97
2022-10-17T05:07:25.167Z,93.67
2022-10-17T05:09:51.760Z,93.86
2022-10-17T05:12:19.090Z,94.61
2022-10-17T05:14:48.587Z,95.00
2022-10-17T05:17:15.388Z,93.74
2022-10-17T05:19:42.010Z,93.62
2022-10-17T05:22:09.558Z,92.13
2022-10-17T05:24:36.597Z,94.35
2022-10-17T05:27:03.574Z,94.44
2022-10-17T05:29:30.632Z,94.92
2022-10-17T05:32:06.015Z,95.94
2022-10-17T05:34:34.160Z,93.33
2022-10-17T05:37:00.847Z,92.63
2022-10-17T05:39:27.910Z,91.26
2022-10-17T05:41:56.489Z,91.70
2022-10-17T05:44:23.306Z,92.96
2022-10-17T05:46:55.044Z,92.00
2022-10-17T05:49:32.519Z,92.44
2022-10-17T05:52:07.805Z,92.62
2022-10-17T05:54:45.690Z,91.50
2022-10-17T05:57:12.702Z,92.63
2022-10-17T05:59:40.689Z,92.87
2022-10-17T06:02:14.445Z,93.26
2022-10-17T06:04:45.594Z,92.72
2022-10-17T06:07:15.841Z,90.58
2022-10-17T06:12:15.778Z,91.21
2022-10-17T06:14:43.583Z,91.29
2022-10-17T06:17:16.065Z,92.73
2022-10-17T06:19:44.817Z,90.66
2022-10-17T06:22:12.837Z,90.07
2022-10-17T06:24:40.197Z,89.92
2022-10-17T06:27:11.000Z,89.43
2022-10-17T06:29:39.632Z,88.32
2022-10-17T06:32:09.787Z,88.22
2022-10-17T06:34:40.050Z,88.43
2022-10-17T06:37:06.897Z,87.38
2022-10-17T06:39:36.380Z,87.16
2022-10-17T06:42:07.307Z,86.68
2022-10-17T06:45:00.244Z,85.57
2022-10-17T06:47:40.414Z,85.71
2022-10-17T06:50:26.909Z,85.14
2022-10-17T06:53:10.564Z,84.90
2022-10-17T06:55:53.112Z,84.35
2022-10-17T06:58:42.894Z,84.37
2022-10-17T07:01:24.340Z,83.40
2022-10-17T07:03:55.074Z,82.96
2022-10-17T07:06:24.598Z,83.43
2022-10-17T07:08:52.361Z,82.94
2022-10-17T07:11:20.767Z,82.28
2022-10-17T07:13:49.742Z,82.07
2022-10-17T07:16:16.529Z,80.91
2022-10-17T07:18:49.753Z,79.09
2022-10-17T07:21:17.602Z,78.02
2022-10-17T07:23:44.295Z,78.80
2022-10-17T07:26:13.573Z,77.25
2022-10-17T07:28:44.053Z,77.69
2022-10-17T07:31:24.433Z,75.60
2022-10-17T07:33:54.683Z,77.79
2022-10-17T07:36:21.415Z,76.59
2022-10-17T07:38:48.266Z,75.14
2022-10-17T07:41:19.208Z,74.46
2022-10-17T07:43:49.257Z,75.62
2022-10-17T07:46:19.929Z,74.61
2022-10-17T07:48:47.064Z,74.61
2022-10-17T07:51:13.881Z,74.34
2022-10-17T07:53:42.749Z,74.21
2022-10-17T07:56:12.364Z,73.91
2022-10-17T07:58:39.465Z,74.77
2022-10-17T08:01:14.810Z,74.18
2022-10-17T08:03:44.110Z,75.08
2022-10-17T08:06:11.182Z,74.45
2022-10-17T08:08:37.802Z,74.53
2022-10-17T08:11:07.549Z,73.44
2022-10-17T08:13:34.879Z,72.97
2022-10-17T08:16:02.786Z,71.87
2022-10-17T08:18:29.408Z,72.06
2022-10-17T08:21:00.389Z,73.76
2022-10-17T08:23:27.830Z,73.69
2022-10-17T08:25:54.642Z,73.66
2022-10-17T08:28:21.407Z,72.44
2022-10-17T08:30:48.143Z,72.40
2022-10-17T08:33:14.798Z,71.53
2022-10-17T08:35:41.585Z,70.94
2022-10-17T08:38:09.998Z,70.04
2022-10-17T08:40:42.669Z,69.85
2022-10-17T08:43:47.465Z,69.77
2022-10-17T08:46:19.223Z,68.58
2022-10-17T08:48:47.826Z,68.80
2022-10-17T08:51:20.486Z,69.53
2022-10-17T08:53:53.328Z,69.78
2022-10-17T08:56:44.078Z,70.70
2022-10-17T08:59:18.872Z,70.01
2022-10-17T09:01:58.328Z,69.05
2022-10-17T09:04:40.584Z,67.83
2022-10-17T09:07:17.918Z,66.17
2022-10-17T09:10:02.589Z,64.87
2022-10-17T09:12:44.712Z,61.73
2022-10-17T09:15:14.244Z,62.86
2022-10-17T09:17:55.893Z,63.93
2022-10-17T09:20:27.729Z,63.54
2022-10-17T09:23:21.437Z,65.53
2022-10-17T09:25:55.333Z,66.15
2022-10-17T09:28:30.290Z,66.45
2022-10-17T09:31:01.268Z,67.09
2022-10-17T09:33:53.833Z,66.97
2022-10-17T09:36:27.424Z,68.31
2022-10-17T09:39:00.147Z,67.92
2022-10-17T09:41:46.461Z,67.73
2022-10-17T09:44:13.706Z,67.30
2022-10-17T09:46:40.711Z,67.29
2022-10-17T09:49:18.703Z,66.71
2022-10-17T09:51:46.017Z,66.39
2022-10-17T09:54:24.091Z,66.64
2022-10-17T09:57:05.764Z,66.70
2022-10-17T09:59:57.300Z,66.38
2022-10-17T10:02:25.593Z,66.01
2022-10-17T10:05:09.566Z,65.90
2022-10-17T10:07:39.665Z,65.41
2022-10-17T10:10:22.487Z,66.16
2022-10-17T10:13:06.186Z,65.38
2022-10-17T10:15:41.292Z,65.34
2022-10-17T10:21:08.504Z,64.79
2022-10-17T10:23:40.150Z,64.83
2022-10-17T10:26:29.784Z,64.46
2022-10-17T10:29:06.597Z,64.27
2022-10-17T10:31:40.249Z,64.73
2022-10-17T10:34:19.718Z,64.57
2022-10-17T10:36:54.961Z,63.57
2022-10-17T10:39:51.004Z,64.24
2022-10-17T10:42:37.257Z,63.57
2022-10-17T10:45:19.078Z,63.23
2022-10-17T10:47:56.148Z,63.55
2022-10-17T10:50:46.421Z,63.55
2022-10-17T10:53:38.342Z,63.10
2022-10-17T10:56:30.205Z,63.37
2022-10-17T10:59:09.177Z,64.20
2022-10-17T11:01:48.075Z,63.38
2022-10-17T11:04:27.100Z,63.97
2022-10-17T11:07:02.177Z,64.49
2022-10-17T11:10:00.266Z,64.85
2022-10-17T11:12:45.774Z,65.14
2022-10-17T11:15:28.710Z,66.91
2022-10-17T11:18:00.119Z,67.19
2022-10-17T11:20:57.620Z,64.99
2022-10-17T11:23:40.211Z,64.78
2022-10-17T11:26:13.822Z,65.43
2022-10-17T11:28:40.497Z,66.15
2022-10-17T11:31:13.490Z,64.99
2022-10-17T11:33:58.269Z,66.15
2022-10-17T11:36:30.592Z,64.84
2022-10-17T11:39:03.420Z,66.04
2022-10-17T11:41:39.563Z,66.01
2022-10-17T11:44:20.437Z,66.21
2022-10-17T11:46:59.005Z,66.18
2022-10-17T11:49:34.250Z,65.37
2022-10-17T11:52:31.907Z,66.67
2022-10-17T11:55:16.195Z,68.40
2022-10-17T11:58:05.903Z,65.93
2022-10-17T12:01:08.349Z,66.40
2022-10-17T12:03:48.092Z,64.98
2022-10-17T12:06:36.514Z,65.12
2022-10-17T12:09:38.746Z,67.65
2022-10-17T12:12:05.699Z,66.53
2022-10-17T12:14:45.050Z,65.38
2022-10-17T12:17:33.019Z,64.21
2022-10-17T12:20:25.132Z,64.94
2022-10-17T12:22:59.294Z,66.49
2022-10-17T12:25:33.609Z,67.41
2022-10-17T12:28:13.854Z,66.92
2022-10-17T12:31:17.189Z,67.49
2022-10-17T12:33:52.904Z,65.19
2022-10-17T12:36:22.226Z,65.90
2022-10-17T12:39:14.610Z,66.35
2022-10-17T12:41:42.175Z,64.30
2022-10-17T12:44:15.066Z,63.06
2022-10-17T12:47:10.882Z,65.62
2022-10-17T12:49:56.598Z,64.59
2022-10-17T12:52:25.047Z,66.14
2022-10-17T12:55:15.039Z,65.53
2022-10-17T12:57:58.537Z,63.53
2022-10-17T13:00:34.977Z,63.70
2022-10-17T13:03:23.897Z,62.48
2022-10-17T13:05:57.498Z,62.54
2022-10-17T13:08:29.051Z,64.64
2022-10-17T13:10:57.054Z,65.69
2022-10-17T13:13:36.243Z,65.92
2022-10-17T13:16:03.232Z,62.76
2022-10-17T13:18:30.282Z,62.31
2022-10-17T13:21:00.022Z,62.88
2022-10-17T13:23:31.001Z,64.42
2022-10-17T13:26:21.916Z,61.05
2022-10-17T13:29:04.673Z,63.77
2022-10-17T13:31:37.150Z,61.69
2022-10-17T13:34:06.680Z,59.91
2022-10-17T13:36:35.150Z,62.82
2022-10-17T13:39:12.087Z,63.51
2022-10-17T13:41:41.747Z,62.12
2022-10-17T13:44:19.200Z,60.86
2022-10-17T13:46:46.546Z,61.87
2022-10-17T13:49:24.419Z,62.84
2022-10-17T13:51:56.055Z,61.86
2022-10-17T13:54:43.000Z,60.18
2022-10-17T13:57:20.860Z,60.70
2022-10-17T13:59:57.655Z,60.83
2022-10-17T14:02:27.907Z,62.15
2022-10-17T14:05:19.951Z,62.18
2022-10-17T14:08:16.918Z,63.76
2022-10-17T14:10:38.672Z,63.43
2022-10-17T14:13:08.251Z,63.59
2022-10-17T14:15:36.678Z,61.97
2022-10-17T14:18:07.944Z,61.12
2022-10-17T14:23:32.255Z,63.35
2022-10-17T14:26:21.417Z,63.60
2022-10-17T14:29:07.309Z,64.22
2022-10-17T14:31:36.756Z,63.33
2022-10-17T14:34:04.909Z,65.04
2022-10-17T14:36:35.268Z,65.49
2022-10-17T14:39:03.658Z,65.66
2022-10-17T14:41:42.983Z,66.02
2022-10-17T14:44:19.186Z,65.61
2022-10-17T14:46:51.003Z,66.07
2022-10-17T14:49:27.348Z,65.50
2022-10-17T14:52:24.715Z,66.47
2022-10-17T14:54:51.885Z,66.16
2022-10-17T14:57:27.807Z,66.15
2022-10-17T14:59:58.047Z,65.87
2022-10-17T15:02:27.157Z,64.19
2022-10-17T15:04:54.806Z,64.65
2022-10-17T15:07:21.729Z,64.34
2022-10-17T15:09:50.468Z,64.40
2022-10-17T15:12:19.619Z,64.47
2022-10-17T15:14:48.367Z,65.36
2022-10-17T15:17:20.539Z,65.35
2022-10-17T15:19:48.026Z,65.73
2022-10-17T15:22:16.092Z,65.98
2022-10-17T15:24:42.995Z,66.57
2022-10-17T15:27:18.127Z,66.00
2022-10-17T15:29:45.493Z,65.85
2022-10-17T15:32:12.222Z,65.47
2022-10-17T15:34:39.387Z,65.15
2022-10-17T15:37:07.471Z,65.11
2022-10-17T15:39:34.045Z,65.60
2022-10-17T15:42:00.687Z,66.37
2022-10-17T15:44:27.323Z,66.38
2022-10-17T15:46:55.696Z,66.75
2022-10-17T15:49:22.385Z,66.88
2022-10-17T15:51:53.055Z,66.43
2022-10-17T15:54:21.952Z,66.65
2022-10-17T15:56:53.968Z,67.70
2022-10-17T15:59:25.899Z,67.46
2022-10-17T16:01:52.622Z,68.16
2022-10-17T16:04:19.241Z,68.35
2022-10-17T16:06:45.904Z,68.21
2022-10-17T16:09:12.520Z,68.46
2022-10-17T16:11:41.802Z,68.58
2022-10-17T16:14:12.549Z,69.01
2022-10-17T16:16:39.546Z,69.47
2022-10-17T16:19:06.799Z,69.35
2022-10-17T16:21:38.107Z,69.46
2022-10-17T16:24:05.283Z,68.58
2022-10-17T16:26:32.323Z,68.38
2022-10-17T16:29:02.579Z,69.20
2022-10-17T16:31:34.256Z,69.35
2022-10-17T16:34:02.329Z,70.15
2022-10-17T16:36:29.816Z,69.85
2022-10-17T16:38:56.518Z,70.17
2022-10-17T16:41:26.356Z,70.45
2022-10-17T16:43:55.577Z,70.40
2022-10-17T16:46:23.966Z,70.69
2022-10-17T16:48:50.675Z,70.50
2022-10-17T16:51:18.837Z,70.83
2022-10-17T16:53:50.684Z,71.61
2022-10-17T16:56:19.438Z,72.54
2022-10-17T16:58:46.501Z,73.01
2022-10-17T17:01:21.356Z,72.79
2022-10-17T17:03:48.249Z,72.84
2022-10-17T17:06:17.167Z,72.65
2022-10-17T17:08:43.916Z,72.61
2022-10-17T17:11:12.238Z,73.43
2022-10-17T17:13:39.336Z,73.20
2022-10-17T17:16:08.682Z,73.03
2022-10-17T17:18:35.741Z,72.78
2022-10-17T17:21:04.703Z,72.76
2022-10-17T17:23:33.603Z,74.04
2022-10-17T17:26:02.685Z,74.34
2022-10-17T17:28:30.420Z,74.98
2022-10-17T17:30:57.251Z,75.71
2022-10-17T17:33:25.070Z,76.37
2022-10-17T17:36:00.127Z,76.72
2022-10-17T17:38:31.848Z,78.00
2022-10-17T17:40:58.612Z,78.40
2022-10-17T17:43:25.600Z,78.76
2022-10-17T17:45:52.686Z,78.81
2022-10-17T17:48:20.778Z,78.80
2022-10-17T17:50:47.953Z,79.24
2022-10-17T17:53:16.728Z,79.53
2022-10-17T17:55:44.335Z,79.28
2022-10-17T17:58:12.239Z,79.43
2022-10-17T18:00:40.772Z,78.66
2022-10-17T18:03:07.854Z,77.45
2022-10-17T18:05:35.948Z,77.31
2022-10-17T18:08:04.706Z,77.90
2022-10-17T18:10:32.807Z,78.30
2022-10-17T18:12:59.445Z,79.11
2022-10-17T18:15:26.394Z,79.55
2022-10-17T18:17:53.020Z,77.77
2022-10-17T18:20:19.672Z,78.50
2022-10-17T18:22:49.503Z,79.21
2022-10-17T18:25:16.452Z,79.67
2022-10-17T18:27:43.028Z,80.39
2022-10-17T18:30:10.241Z,80.74
2022-10-17T18:32:38.907Z,81.24
2022-10-17T18:35:05.971Z,80.60
2022-10-17T18:37:32.671Z,80.73
2022-10-17T18:39:59.294Z,80.86
2022-10-17T18:42:26.030Z,81.62
2022-10-17T18:44:53.325Z,81.85
2022-10-17T18:47:21.023Z,82.27
2022-10-17T18:49:48.500Z,82.13
2022-10-17T18:52:15.283Z,82.17
2022-10-17T18:54:41.930Z,82.41
2022-10-17T18:57:08.572Z,82.65
2022-10-17T18:59:35.207Z,82.69
2022-10-17T19:02:01.978Z,83.23
2022-10-17T19:04:28.741Z,83.91
2022-10-17T19:06:55.459Z,84.19
2022-10-17T19:09:22.105Z,84.02
2022-10-17T19:11:49.151Z,84.25
2022-10-17T19:14:16.002Z,84.07
2022-10-17T19:16:48.768Z,84.09
2022-10-17T19:19:21.325Z,83.98
2022-10-17T19:21:51.602Z,84.11
2022-10-17T19:24:21.361Z,84.71
2022-10-17T19:26:50.321Z,85.08
2022-10-17T19:29:18.590Z,85.23
2022-10-17T19:31:46.875Z,84.92
2022-10-17T19:34:15.217Z,84.26
2022-10-17T19:36:42.700Z,84.49
2022-10-17T19:39:13.952Z,84.88
2022-10-17T19:41:42.261Z,84.12
2022-10-17T19:44:11.751Z,82.89
2022-10-17T19:46:38.773Z,82.27
2022-10-17T19:49:06.691Z,81.82
2022-10-17T19:51:33.750Z,81.80
2022-10-17T19:54:01.678Z,83.14
2022-10-17T19:56:30.609Z,84.13
2022-10-17T19:58:58.079Z,84.01
2022-10-17T20:01:28.127Z,83.17
2022-10-17T20:03:55.690Z,82.70
2022-10-17T20:06:23.198Z,83.59
2022-10-17T20:08:50.449Z,84.24
2022-10-17T20:11:20.499Z,84.37
2022-10-17T20:13:47.729Z,84.02
2022-10-17T20:16:20.377Z,84.06
2022-10-17T20:18:47.874Z,84.38
2022-10-17T20:21:18.546Z,84.72
2022-10-17T20:23:47.497Z,84.89
2022-10-17T20:26:26.262Z,85.52
2022-10-17T20:29:08.730Z,84.64
2022-10-17T20:31:35.691Z,85.09
2022-10-17T20:34:03.368Z,84.98
2022-10-17T20:36:30.271Z,84.86
2022-10-17T20:38:58.222Z,84.91
2022-10-17T20:41:26.327Z,85.12
2022-10-17T20:43:55.191Z,85.15
2022-10-17T20:46:35.802Z,84.48
2022-10-17T20:49:03.618Z,84.30
2022-10-17T20:51:30.597Z,84.91
2022-10-17T20:56:30.994Z,85.70
2022-10-17T20:59:01.122Z,85.19
2022-10-17T21:01:29.194Z,84.40
2022-10-17T21:03:59.659Z,84.94
2022-10-17T21:06:27.874Z,85.46
2022-10-17T21:08:55.698Z,85.62
2022-10-17T21:11:25.270Z,85.91
2022-10-17T21:14:00.701Z,86.16
2022-10-17T21:16:29.019Z,86.12
2022-10-17T21:18:56.375Z,86.14
2022-10-17T21:21:26.927Z,85.95
2022-10-17T21:24:01.068Z,86.34
2022-10-17T21:26:28.862Z,86.78
2022-10-17T21:28:55.481Z,86.98
2022-10-17T21:31:24.986Z,86.92
2022-10-17T21:33:54.583Z,85.92
2022-10-17T21:36:22.874Z,84.98
2022-10-17T21:38:52.056Z,83.65
2022-10-17T21:41:20.406Z,85.00
2022-10-17T21:43:48.061Z,85.58
2022-10-17T21:46:17.216Z,84.06
2022-10-17T21:48:44.967Z,84.56
2022-10-17T21:51:14.351Z,84.92
2022-10-17T21:53:41.608Z,84.68
2022-10-17T21:56:12.778Z,85.61
2022-10-17T21:58:39.536Z,86.13
2022-10-17T22:01:10.405Z,86.81
2022-10-17T22:03:42.776Z,86.40
2022-10-17T22:09:01.245Z,87.35
2022-10-17T22:11:31.116Z,87.32
2022-10-17T22:14:10.108Z,87.61
2022-10-17T22:16:38.427Z,86.54
2022-10-17T22:19:07.000Z,84.63
2022-10-17T22:21:35.741Z,84.67
2022-10-17T22:24:05.689Z,84.09
2022-10-17T22:26:35.399Z,83.71
2022-10-17T22:29:04.317Z,84.21
2022-10-17T22:31:31.327Z,85.08
2022-10-17T22:33:58.162Z,86.05
2022-10-17T22:36:24.852Z,86.89
2022-10-17T22:38:51.864Z,87.85
2022-10-17T22:41:18.882Z,86.81
2022-10-17T22:43:45.497Z,86.64
2022-10-17T22:46:13.692Z,87.29
2022-10-17T22:48:40.443Z,89.03
2022-10-17T22:51:07.571Z,88.75
2022-10-17T22:53:35.293Z,89.04
2022-10-17T22:56:12.203Z,88.61
2022-10-17T22:58:38.946Z,88.19
2022-10-17T23:01:07.031Z,90.26
2022-10-17T23:03:35.142Z,91.09
2022-10-17T23:06:02.805Z,90.05
2022-10-17T23:08:29.518Z,87.22
2022-10-17T23:10:56.195Z,87.05
2022-10-17T23:13:22.937Z,88.60
2022-10-17T23:15:51.758Z,88.86
2022-10-17T23:18:19.421Z,89.22
2022-10-17T23:20:46.466Z,89.21
2022-10-17T23:23:13.327Z,87.79
2022-10-17T23:25:40.044Z,87.25
2022-10-17T23:28:10.091Z,88.00
2022-10-17T23:30:38.905Z,88.16
2022-10-17T23:33:06.789Z,87.14
2022-10-17T23:35:35.655Z,87.06
2022-10-17T23:38:02.571Z,87.24
2022-10-17T23:40:29.491Z,87.43
2022-10-17T23:42:56.148Z,86.79
2022-10-17T23:45:22.810Z,87.43
2022-10-17T23:47:49.712Z,88.26
2022-10-17T23:50:16.657Z,88.02
2022-10-17T23:52:43.668Z,87.38
2022-10-17T23:55:10.546Z,87.03
2022-10-17T23:57:38.539Z,88.64
